sensor_id;sensor_type;location;lat;lon;timestamp;temperature;humidity
10390;DHT22;5241;47.830;12.972;2022-07-29T00:01:06;19.90;99.90
10390;DHT22;5241;47.830;12.972;2022-07-29T00:03:31;19.90;99.90
10390;DHT22;5241;47.830;12.972;2022-07-29T00:05:57;19.90;99.90
10390;DHT22;5241;47.830;12.972;2022-07-29T00:08:22;19.70;99.90
10390;DHT22;5241;47.830;12.972;2022-07-29T00:10:48;19.80;99.90
10390;DHT22;5241;47.830;12.972;2022-07-29T00:13:14;19.80;99.90
10390;DHT22;5241;47.830;12.972;2022-07-29T00:15:39;19.80;99.90
10390;DHT22;5241;47.830;12.972;2022-07-29T00:18:05;19.80;99.90
10390;DHT22;5241;47.830;12.972;2022-07-29T00:20:30;19.80;99.90
10390;DHT22;5241;47.830;12.972;2022-07-29T00:22:56;19.80;99.90
10390;DHT22;5241;47.830;12.972;2022-07-29T00:25:22;19.70;99.90
10390;DHT22;5241;47.830;12.972;2022-07-29T00:27:47;19.60;99.90
10390;DHT22;5241;47.830;12.972;2022-07-29T00:30:13;19.60;99.90
10390;DHT22;5241;47.830;12.972;2022-07-29T00:32:38;19.70;99.90
10390;DHT22;5241;47.830;12.972;2022-07-29T00:35:05;19.70;99.90
10390;DHT22;5241;47.830;12.972;2022-07-29T00:37:49;19.70;99.90
10390;DHT22;5241;47.830;12.972;2022-07-29T00:40:15;19.60;99.90
10390;DHT22;5241;47.830;12.972;2022-07-29T00:42:45;19.60;99.90
10390;DHT22;5241;47.830;12.972;2022-07-29T00:45:11;19.60;99.90
10390;DHT22;5241;47.830;12.972;2022-07-29T00:47:37;19.70;99.90
10390;DHT22;5241;47.830;12.972;2022-07-29T00:50:04;19.70;99.90
10390;DHT22;5241;47.830;12.972;2022-07-29T00:52:30;19.70;99.90
10390;DHT22;5241;47.830;12.972;2022-07-29T00:54:56;19.70;99.90
10390;DHT22;5241;47.830;12.972;2022-07-29T00:57:22;19.70;99.90
10390;DHT22;5241;47.830;12.972;2022-07-29T00:59:48;19.70;99.90
10390;DHT22;5241;47.830;12.972;2022-07-29T01:02:13;19.60;99.90
10390;DHT22;5241;47.830;12.972;2022-07-29T01:04:39;19.70;99.90
10390;DHT22;5241;47.830;12.972;2022-07-29T01:07:05;19.70;99.90
10390;DHT22;5241;47.830;12.972;2022-07-29T01:09:32;19.70;99.90
10390;DHT22;5241;47.830;12.972;2022-07-29T01:11:59;19.70;99.90
10390;DHT22;5241;47.830;12.972;2022-07-29T01:14:25;19.70;99.90
10390;DHT22;5241;47.830;12.972;2022-07-29T01:17:18;19.60;99.90
10390;DHT22;5241;47.830;12.972;2022-07-29T01:20:02;19.60;99.90
10390;DHT22;5241;47.830;12.972;2022-07-29T01:22:31;19.60;99.90
10390;DHT22;5241;47.830;12.972;2022-07-29T01:25:17;19.60;99.90
10390;DHT22;5241;47.830;12.972;2022-07-29T01:30:23;19.60;99.90
10390;DHT22;5241;47.830;12.972;2022-07-29T01:32:54;19.50;99.90
10390;DHT22;5241;47.830;12.972;2022-07-29T01:35:26;19.40;99.90
10390;DHT22;5241;47.830;12.972;2022-07-29T01:38:09;19.50;99.90
10390;DHT22;5241;47.830;12.972;2022-07-29T01:40:43;19.50;99.90
10390;DHT22;5241;47.830;12.972;2022-07-29T01:43:12;19.50;99.90
10390;DHT22;5241;47.830;12.972;2022-07-29T01:45:48;19.50;99.90
10390;DHT22;5241;47.830;12.972;2022-07-29T01:48:55;19.50;99.90
10390;DHT22;5241;47.830;12.972;2022-07-29T01:51:28;19.60;99.90
10390;DHT22;5241;47.830;12.972;2022-07-29T01:54:01;19.60;99.90
10390;DHT22;5241;47.830;12.972;2022-07-29T01:56:28;19.60;99.90
10390;DHT22;5241;47.830;12.972;2022-07-29T01:58:57;19.70;99.90
10390;DHT22;5241;47.830;12.972;2022-07-29T02:01:24;19.70;99.90
10390;DHT22;5241;47.830;12.972;2022-07-29T02:03:53;19.70;99.90
10390;DHT22;5241;47.830;12.972;2022-07-29T02:06:21;19.70;99.90
10390;DHT22;5241;47.830;12.972;2022-07-29T02:08:48;19.70;99.90
10390;DHT22;5241;47.830;12.972;2022-07-29T02:11:14;19.70;99.90
10390;DHT22;5241;47.830;12.972;2022-07-29T02:13:40;19.70;99.90
10390;DHT22;5241;47.830;12.972;2022-07-29T02:16:07;19.70;99.90
10390;DHT22;5241;47.830;12.972;2022-07-29T02:18:34;19.60;99.90
10390;DHT22;5241;47.830;12.972;2022-07-29T02:21:01;19.60;99.90
10390;DHT22;5241;47.830;12.972;2022-07-29T02:23:31;19.60;99.90
10390;DHT22;5241;47.830;12.972;2022-07-29T02:25:59;19.60;99.90
10390;DHT22;5241;47.830;12.972;2022-07-29T02:28:27;19.60;99.90
10390;DHT22;5241;47.830;12.972;2022-07-29T02:30:56;19.60;99.90
10390;DHT22;5241;47.830;12.972;2022-07-29T02:33:24;19.60;99.90
10390;DHT22;5241;47.830;12.972;2022-07-29T02:35:51;19.60;99.90
10390;DHT22;5241;47.830;12.972;2022-07-29T02:38:18;19.70;99.90
10390;DHT22;5241;47.830;12.972;2022-07-29T02:41:08;19.70;99.90
10390;DHT22;5241;47.830;12.972;2022-07-29T02:43:35;19.80;99.90
10390;DHT22;5241;47.830;12.972;2022-07-29T02:46:04;19.80;99.90
10390;DHT22;5241;47.830;12.972;2022-07-29T02:48:55;19.90;99.90
10390;DHT22;5241;47.830;12.972;2022-07-29T02:51:43;19.80;99.90
10390;DHT22;5241;47.830;12.972;2022-07-29T02:54:13;19.80;99.90
10390;DHT22;5241;47.830;12.972;2022-07-29T02:56:40;19.70;99.90
10390;DHT22;5241;47.830;12.972;2022-07-29T02:59:11;19.80;99.90
10390;DHT22;5241;47.830;12.972;2022-07-29T03:01:41;19.70;99.90
10390;DHT22;5241;47.830;12.972;2022-07-29T03:04:09;19.70;99.90
10390;DHT22;5241;47.830;12.972;2022-07-29T03:06:37;19.70;99.90
10390;DHT22;5241;47.830;12.972;2022-07-29T03:09:04;19.70;99.90
10390;DHT22;5241;47.830;12.972;2022-07-29T03:11:31;19.60;99.90
10390;DHT22;5241;47.830;12.972;2022-07-29T03:13:58;19.60;99.90
10390;DHT22;5241;47.830;12.972;2022-07-29T03:16:24;19.60;99.90
10390;DHT22;5241;47.830;12.972;2022-07-29T03:18:50;19.60;99.90
10390;DHT22;5241;47.830;12.972;2022-07-29T03:21:16;19.50;99.90
10390;DHT22;5241;47.830;12.972;2022-07-29T03:23:45;19.40;99.90
10390;DHT22;5241;47.830;12.972;2022-07-29T03:26:11;19.40;99.90
10390;DHT22;5241;47.830;12.972;2022-07-29T03:28:36;19.50;99.90
10390;DHT22;5241;47.830;12.972;2022-07-29T03:31:02;19.40;99.90
10390;DHT22;5241;47.830;12.972;2022-07-29T03:33:28;19.40;99.90
10390;DHT22;5241;47.830;12.972;2022-07-29T03:35:55;19.40;99.90
10390;DHT22;5241;47.830;12.972;2022-07-29T03:38:24;19.30;99.90
10390;DHT22;5241;47.830;12.972;2022-07-29T03:40:56;19.30;99.90
10390;DHT22;5241;47.830;12.972;2022-07-29T03:43:32;19.30;99.90
10390;DHT22;5241;47.830;12.972;2022-07-29T03:46:00;19.40;99.90
10390;DHT22;5241;47.830;12.972;2022-07-29T03:48:28;19.30;99.90
10390;DHT22;5241;47.830;12.972;2022-07-29T03:50:56;19.30;99.90
10390;DHT22;5241;47.830;12.972;2022-07-29T03:53:22;19.20;99.90
10390;DHT22;5241;47.830;12.972;2022-07-29T03:55:52;19.30;99.90
10390;DHT22;5241;47.830;12.972;2022-07-29T03:58:19;19.20;99.90
10390;DHT22;5241;47.830;12.972;2022-07-29T04:00:46;19.20;99.90
10390;DHT22;5241;47.830;12.972;2022-07-29T04:03:12;19.20;99.90
10390;DHT22;5241;47.830;12.972;2022-07-29T04:05:38;19.20;99.90
10390;DHT22;5241;47.830;12.972;2022-07-29T04:08:04;19.20;99.90
10390;DHT22;5241;47.830;12.972;2022-07-29T04:10:29;19.20;99.90
10390;DHT22;5241;47.830;12.972;2022-07-29T04:12:55;19.20;99.90
10390;DHT22;5241;47.830;12.972;2022-07-29T04:15:21;19.20;99.90
10390;DHT22;5241;47.830;12.972;2022-07-29T04:17:46;19.30;99.90
10390;DHT22;5241;47.830;12.972;2022-07-29T04:20:12;19.40;99.90
10390;DHT22;5241;47.830;12.972;2022-07-29T04:22:39;19.40;99.90
10390;DHT22;5241;47.830;12.972;2022-07-29T04:25:05;19.50;99.90
10390;DHT22;5241;47.830;12.972;2022-07-29T04:27:30;19.50;99.90
10390;DHT22;5241;47.830;12.972;2022-07-29T04:29:56;19.60;99.90
10390;DHT22;5241;47.830;12.972;2022-07-29T04:32:22;19.60;99.90
10390;DHT22;5241;47.830;12.972;2022-07-29T04:34:47;19.50;99.90
10390;DHT22;5241;47.830;12.972;2022-07-29T04:37:13;19.50;99.90
10390;DHT22;5241;47.830;12.972;2022-07-29T04:39:38;19.40;99.90
10390;DHT22;5241;47.830;12.972;2022-07-29T04:42:04;19.40;99.90
10390;DHT22;5241;47.830;12.972;2022-07-29T04:44:30;19.40;99.90
10390;DHT22;5241;47.830;12.972;2022-07-29T04:46:56;19.40;99.90
10390;DHT22;5241;47.830;12.972;2022-07-29T04:49:22;19.40;99.90
10390;DHT22;5241;47.830;12.972;2022-07-29T04:51:48;19.40;99.90
10390;DHT22;5241;47.830;12.972;2022-07-29T04:54:14;19.40;99.90
10390;DHT22;5241;47.830;12.972;2022-07-29T04:56:40;19.40;99.90
10390;DHT22;5241;47.830;12.972;2022-07-29T04:59:07;19.60;99.90
10390;DHT22;5241;47.830;12.972;2022-07-29T05:01:32;19.60;99.90
10390;DHT22;5241;47.830;12.972;2022-07-29T05:03:58;19.70;99.90
10390;DHT22;5241;47.830;12.972;2022-07-29T05:06:23;19.80;99.90
10390;DHT22;5241;47.830;12.972;2022-07-29T05:08:49;19.90;99.90
10390;DHT22;5241;47.830;12.972;2022-07-29T05:11:14;20.00;99.90
10390;DHT22;5241;47.830;12.972;2022-07-29T05:13:40;20.00;99.90
10390;DHT22;5241;47.830;12.972;2022-07-29T05:16:05;20.00;99.90
10390;DHT22;5241;47.830;12.972;2022-07-29T05:18:32;20.10;99.90
10390;DHT22;5241;47.830;12.972;2022-07-29T05:20:58;20.00;99.90
10390;DHT22;5241;47.830;12.972;2022-07-29T05:23:24;20.10;99.90
10390;DHT22;5241;47.830;12.972;2022-07-29T05:25:49;20.10;99.90
10390;DHT22;5241;47.830;12.972;2022-07-29T05:28:15;20.10;99.90
10390;DHT22;5241;47.830;12.972;2022-07-29T05:30:41;20.10;99.90
10390;DHT22;5241;47.830;12.972;2022-07-29T05:33:06;20.10;99.90
10390;DHT22;5241;47.830;12.972;2022-07-29T05:35:32;20.00;99.90
10390;DHT22;5241;47.830;12.972;2022-07-29T05:38:00;20.10;99.90
10390;DHT22;5241;47.830;12.972;2022-07-29T05:40:25;20.20;99.90
10390;DHT22;5241;47.830;12.972;2022-07-29T05:42:51;20.40;99.90
10390;DHT22;5241;47.830;12.972;2022-07-29T05:45:16;20.50;99.90
10390;DHT22;5241;47.830;12.972;2022-07-29T05:47:42;20.50;99.90
10390;DHT22;5241;47.830;12.972;2022-07-29T05:50:08;20.60;99.90
10390;DHT22;5241;47.830;12.972;2022-07-29T05:52:34;20.70;99.90
10390;DHT22;5241;47.830;12.972;2022-07-29T05:54:59;20.70;99.90
10390;DHT22;5241;47.830;12.972;2022-07-29T05:57:28;20.90;99.90
10390;DHT22;5241;47.830;12.972;2022-07-29T05:59:53;21.10;99.90
10390;DHT22;5241;47.830;12.972;2022-07-29T06:02:19;21.30;99.90
10390;DHT22;5241;47.830;12.972;2022-07-29T06:04:45;21.40;99.90
10390;DHT22;5241;47.830;12.972;2022-07-29T06:07:10;21.60;99.90
10390;DHT22;5241;47.830;12.972;2022-07-29T06:09:36;21.50;99.90
10390;DHT22;5241;47.830;12.972;2022-07-29T06:12:02;21.50;99.90
10390;DHT22;5241;47.830;12.972;2022-07-29T06:14:28;21.40;99.90
10390;DHT22;5241;47.830;12.972;2022-07-29T06:16:54;21.40;99.90
10390;DHT22;5241;47.830;12.972;2022-07-29T06:19:19;21.40;99.90
10390;DHT22;5241;47.830;12.972;2022-07-29T06:21:46;21.50;99.90
10390;DHT22;5241;47.830;12.972;2022-07-29T06:24:12;21.50;99.90
10390;DHT22;5241;47.830;12.972;2022-07-29T06:26:39;21.40;99.90
10390;DHT22;5241;47.830;12.972;2022-07-29T06:29:05;21.50;99.90
10390;DHT22;5241;47.830;12.972;2022-07-29T06:31:31;21.40;99.90
10390;DHT22;5241;47.830;12.972;2022-07-29T06:33:56;21.30;99.90
10390;DHT22;5241;47.830;12.972;2022-07-29T06:36:22;21.30;99.90
10390;DHT22;5241;47.830;12.972;2022-07-29T06:38:47;21.30;99.90
10390;DHT22;5241;47.830;12.972;2022-07-29T06:41:13;21.30;99.90
10390;DHT22;5241;47.830;12.972;2022-07-29T06:43:42;21.30;99.90
10390;DHT22;5241;47.830;12.972;2022-07-29T06:46:12;21.40;99.90
10390;DHT22;5241;47.830;12.972;2022-07-29T06:48:38;21.30;99.90
10390;DHT22;5241;47.830;12.972;2022-07-29T06:51:05;21.30;99.90
10390;DHT22;5241;47.830;12.972;2022-07-29T06:53:31;21.60;99.90
10390;DHT22;5241;47.830;12.972;2022-07-29T06:55:58;22.70;99.90
10390;DHT22;5241;47.830;12.972;2022-07-29T06:58:25;23.80;99.90
10390;DHT22;5241;47.830;12.972;2022-07-29T07:00:51;24.70;99.90
10390;DHT22;5241;47.830;12.972;2022-07-29T07:03:17;25.40;99.90
10390;DHT22;5241;47.830;12.972;2022-07-29T07:05:44;25.70;99.90
10390;DHT22;5241;47.830;12.972;2022-07-29T07:08:09;26.00;99.90
10390;DHT22;5241;47.830;12.972;2022-07-29T07:10:35;26.00;97.50
10390;DHT22;5241;47.830;12.972;2022-07-29T07:13:01;26.50;97.40
10390;DHT22;5241;47.830;12.972;2022-07-29T07:15:28;26.70;96.20
10390;DHT22;5241;47.830;12.972;2022-07-29T07:17:53;26.70;95.30
10390;DHT22;5241;47.830;12.972;2022-07-29T07:20:19;26.80;94.30
10390;DHT22;5241;47.830;12.972;2022-07-29T07:22:44;26.80;94.00
10390;DHT22;5241;47.830;12.972;2022-07-29T07:25:12;26.80;94.80
10390;DHT22;5241;47.830;12.972;2022-07-29T07:27:38;27.20;93.80
10390;DHT22;5241;47.830;12.972;2022-07-29T07:30:07;27.20;94.00
10390;DHT22;5241;47.830;12.972;2022-07-29T07:32:33;27.90;92.50
10390;DHT22;5241;47.830;12.972;2022-07-29T07:34:59;28.20;90.90
10390;DHT22;5241;47.830;12.972;2022-07-29T07:37:25;28.20;90.40
10390;DHT22;5241;47.830;12.972;2022-07-29T07:39:52;28.60;88.20
10390;DHT22;5241;47.830;12.972;2022-07-29T07:42:18;28.80;87.40
10390;DHT22;5241;47.830;12.972;2022-07-29T07:44:44;29.20;85.80
10390;DHT22;5241;47.830;12.972;2022-07-29T07:47:11;29.60;84.60
10390;DHT22;5241;47.830;12.972;2022-07-29T07:49:37;30.20;80.30
10390;DHT22;5241;47.830;12.972;2022-07-29T07:52:03;30.40;76.80
10390;DHT22;5241;47.830;12.972;2022-07-29T07:54:28;30.50;74.70
10390;DHT22;5241;47.830;12.972;2022-07-29T07:56:54;30.50;76.20
10390;DHT22;5241;47.830;12.972;2022-07-29T07:59:20;30.20;77.20
10390;DHT22;5241;47.830;12.972;2022-07-29T08:01:45;31.00;76.50
10390;DHT22;5241;47.830;12.972;2022-07-29T08:04:11;30.30;75.30
10390;DHT22;5241;47.830;12.972;2022-07-29T08:06:36;29.70;75.10
10390;DHT22;5241;47.830;12.972;2022-07-29T08:09:03;29.20;75.50
10390;DHT22;5241;47.830;12.972;2022-07-29T08:11:29;28.60;76.50
10390;DHT22;5241;47.830;12.972;2022-07-29T08:13:55;28.60;79.10
10390;DHT22;5241;47.830;12.972;2022-07-29T08:16:21;28.00;80.60
10390;DHT22;5241;47.830;12.972;2022-07-29T08:18:47;27.70;82.00
10390;DHT22;5241;47.830;12.972;2022-07-29T08:21:17;27.50;81.70
10390;DHT22;5241;47.830;12.972;2022-07-29T08:23:44;27.30;83.60
10390;DHT22;5241;47.830;12.972;2022-07-29T08:26:18;27.30;86.10
10390;DHT22;5241;47.830;12.972;2022-07-29T08:28:45;27.80;84.40
10390;DHT22;5241;47.830;12.972;2022-07-29T08:31:12;28.60;80.40
10390;DHT22;5241;47.830;12.972;2022-07-29T08:33:38;28.80;78.80
10390;DHT22;5241;47.830;12.972;2022-07-29T08:36:05;28.20;81.30
10390;DHT22;5241;47.830;12.972;2022-07-29T08:38:31;28.50;78.50
10390;DHT22;5241;47.830;12.972;2022-07-29T08:40:58;29.60;77.20
10390;DHT22;5241;47.830;12.972;2022-07-29T08:43:24;30.10;73.60
10390;DHT22;5241;47.830;12.972;2022-07-29T08:45:50;30.80;73.30
10390;DHT22;5241;47.830;12.972;2022-07-29T08:48:22;31.00;69.90
10390;DHT22;5241;47.830;12.972;2022-07-29T08:50:52;30.80;74.70
10390;DHT22;5241;47.830;12.972;2022-07-29T08:53:18;30.70;76.60
10390;DHT22;5241;47.830;12.972;2022-07-29T08:55:46;30.70;74.90
10390;DHT22;5241;47.830;12.972;2022-07-29T08:58:13;30.40;73.80
10390;DHT22;5241;47.830;12.972;2022-07-29T09:00:45;30.20;74.80
10390;DHT22;5241;47.830;12.972;2022-07-29T09:03:15;30.60;73.70
10390;DHT22;5241;47.830;12.972;2022-07-29T09:05:44;30.40;75.90
10390;DHT22;5241;47.830;12.972;2022-07-29T09:08:10;29.80;77.40
10390;DHT22;5241;47.830;12.972;2022-07-29T09:10:36;29.80;76.70
10390;DHT22;5241;47.830;12.972;2022-07-29T09:13:02;30.70;71.70
10390;DHT22;5241;47.830;12.972;2022-07-29T09:15:27;30.30;72.60
10390;DHT22;5241;47.830;12.972;2022-07-29T09:17:53;30.80;72.10
10390;DHT22;5241;47.830;12.972;2022-07-29T09:20:21;30.60;69.10
10390;DHT22;5241;47.830;12.972;2022-07-29T09:22:50;30.10;70.10
10390;DHT22;5241;47.830;12.972;2022-07-29T09:25:37;29.90;69.70
10390;DHT22;5241;47.830;12.972;2022-07-29T09:28:16;29.60;71.90
10390;DHT22;5241;47.830;12.972;2022-07-29T09:30:56;30.30;69.30
10390;DHT22;5241;47.830;12.972;2022-07-29T09:33:24;30.10;69.70
10390;DHT22;5241;47.830;12.972;2022-07-29T09:36:14;29.90;72.30
10390;DHT22;5241;47.830;12.972;2022-07-29T09:38:39;30.30;69.60
10390;DHT22;5241;47.830;12.972;2022-07-29T09:41:05;31.30;69.10
10390;DHT22;5241;47.830;12.972;2022-07-29T09:43:33;31.60;65.50
10390;DHT22;5241;47.830;12.972;2022-07-29T09:46:12;31.40;68.40
10390;DHT22;5241;47.830;12.972;2022-07-29T09:48:38;30.30;70.30
10390;DHT22;5241;47.830;12.972;2022-07-29T09:51:04;30.10;71.20
10390;DHT22;5241;47.830;12.972;2022-07-29T09:53:36;30.30;70.40
10390;DHT22;5241;47.830;12.972;2022-07-29T09:56:03;31.20;65.90
10390;DHT22;5241;47.830;12.972;2022-07-29T09:58:28;31.20;68.70
10390;DHT22;5241;47.830;12.972;2022-07-29T10:00:55;30.90;67.20
10390;DHT22;5241;47.830;12.972;2022-07-29T10:03:22;31.00;67.70
10390;DHT22;5241;47.830;12.972;2022-07-29T10:06:05;30.50;72.20
10390;DHT22;5241;47.830;12.972;2022-07-29T10:08:31;30.10;73.20
10390;DHT22;5241;47.830;12.972;2022-07-29T10:11:10;29.80;72.40
10390;DHT22;5241;47.830;12.972;2022-07-29T10:13:36;30.10;73.90
10390;DHT22;5241;47.830;12.972;2022-07-29T10:16:02;30.30;71.50
10390;DHT22;5241;47.830;12.972;2022-07-29T10:18:28;30.50;72.50
10390;DHT22;5241;47.830;12.972;2022-07-29T10:20:53;30.10;72.20
10390;DHT22;5241;47.830;12.972;2022-07-29T10:23:20;29.90;71.80
10390;DHT22;5241;47.830;12.972;2022-07-29T10:25:45;29.80;71.30
10390;DHT22;5241;47.830;12.972;2022-07-29T10:28:11;30.20;72.30
10390;DHT22;5241;47.830;12.972;2022-07-29T10:30:38;30.30;73.50
10390;DHT22;5241;47.830;12.972;2022-07-29T10:33:28;30.90;70.40
10390;DHT22;5241;47.830;12.972;2022-07-29T10:44:35;30.30;61.00
10390;DHT22;5241;47.830;12.972;2022-07-29T10:47:04;30.30;62.40
10390;DHT22;5241;47.830;12.972;2022-07-29T10:49:30;31.00;62.70
10390;DHT22;5241;47.830;12.972;2022-07-29T10:52:06;32.20;63.00
10390;DHT22;5241;47.830;12.972;2022-07-29T10:59:39;30.20;66.80
10390;DHT22;5241;47.830;12.972;2022-07-29T11:07:27;30.50;66.60
10390;DHT22;5241;47.830;12.972;2022-07-29T11:15:07;31.60;62.00
10390;DHT22;5241;47.830;12.972;2022-07-29T11:20:40;31.30;64.40
10390;DHT22;5241;47.830;12.972;2022-07-29T11:23:26;31.60;62.20
10390;DHT22;5241;47.830;12.972;2022-07-29T11:31:41;32.80;60.30
10390;DHT22;5241;47.830;12.972;2022-07-29T11:34:24;32.90;59.50
10390;DHT22;5241;47.830;12.972;2022-07-29T11:47:31;32.30;62.30
10390;DHT22;5241;47.830;12.972;2022-07-29T11:49:58;33.40;58.40
10390;DHT22;5241;47.830;12.972;2022-07-29T11:52:33;33.40;60.30
10390;DHT22;5241;47.830;12.972;2022-07-29T11:55:01;32.90;58.80
10390;DHT22;5241;47.830;12.972;2022-07-29T11:57:28;32.50;59.70
10390;DHT22;5241;47.830;12.972;2022-07-29T11:59:55;32.50;59.50
10390;DHT22;5241;47.830;12.972;2022-07-29T12:02:22;32.80;58.20
10390;DHT22;5241;47.830;12.972;2022-07-29T12:04:55;33.50;57.40
10390;DHT22;5241;47.830;12.972;2022-07-29T12:07:31;33.00;57.70
10390;DHT22;5241;47.830;12.972;2022-07-29T12:09:57;32.30;56.50
10390;DHT22;5241;47.830;12.972;2022-07-29T12:12:23;33.60;56.90
10390;DHT22;5241;47.830;12.972;2022-07-29T12:14:49;33.90;54.50
10390;DHT22;5241;47.830;12.972;2022-07-29T12:17:34;33.50;58.00
10390;DHT22;5241;47.830;12.972;2022-07-29T12:20:04;33.40;56.70
10390;DHT22;5241;47.830;12.972;2022-07-29T12:22:40;33.20;57.50
10390;DHT22;5241;47.830;12.972;2022-07-29T12:25:14;33.40;52.30
10390;DHT22;5241;47.830;12.972;2022-07-29T12:27:41;34.10;55.30
10390;DHT22;5241;47.830;12.972;2022-07-29T12:30:13;33.50;55.80
10390;DHT22;5241;47.830;12.972;2022-07-29T12:32:41;33.70;55.20
10390;DHT22;5241;47.830;12.972;2022-07-29T12:35:18;34.10;53.50
10390;DHT22;5241;47.830;12.972;2022-07-29T12:37:46;33.90;53.60
10390;DHT22;5241;47.830;12.972;2022-07-29T12:40:17;33.70;52.40
10390;DHT22;5241;47.830;12.972;2022-07-29T12:43:10;33.00;52.40
10390;DHT22;5241;47.830;12.972;2022-07-29T12:45:38;33.50;54.10
10390;DHT22;5241;47.830;12.972;2022-07-29T12:48:06;33.80;52.50
10390;DHT22;5241;47.830;12.972;2022-07-29T12:50:35;34.20;49.30
10390;DHT22;5241;47.830;12.972;2022-07-29T12:53:13;34.30;51.00
10390;DHT22;5241;47.830;12.972;2022-07-29T12:55:44;33.30;52.70
10390;DHT22;5241;47.830;12.972;2022-07-29T12:58:10;32.10;53.90
10390;DHT22;5241;47.830;12.972;2022-07-29T13:00:36;31.30;55.90
10390;DHT22;5241;47.830;12.972;2022-07-29T13:03:01;31.30;56.30
10390;DHT22;5241;47.830;12.972;2022-07-29T13:05:41;31.70;54.90
10390;DHT22;5241;47.830;12.972;2022-07-29T13:08:14;31.40;55.00
10390;DHT22;5241;47.830;12.972;2022-07-29T13:10:40;31.10;55.80
10390;DHT22;5241;47.830;12.972;2022-07-29T13:13:12;31.80;55.50
10390;DHT22;5241;47.830;12.972;2022-07-29T13:15:40;33.00;55.40
10390;DHT22;5241;47.830;12.972;2022-07-29T13:18:34;32.60;53.80
10390;DHT22;5241;47.830;12.972;2022-07-29T13:21:12;34.10;52.00
10390;DHT22;5241;47.830;12.972;2022-07-29T13:23:38;34.40;51.70
10390;DHT22;5241;47.830;12.972;2022-07-29T13:26:08;34.40;50.60
10390;DHT22;5241;47.830;12.972;2022-07-29T13:28:34;34.60;50.10
10390;DHT22;5241;47.830;12.972;2022-07-29T13:31:00;34.90;49.90
10390;DHT22;5241;47.830;12.972;2022-07-29T13:33:25;34.30;50.50
10390;DHT22;5241;47.830;12.972;2022-07-29T13:35:51;33.80;50.70
10390;DHT22;5241;47.830;12.972;2022-07-29T13:38:16;33.10;54.20
10390;DHT22;5241;47.830;12.972;2022-07-29T13:40:42;33.30;54.70
10390;DHT22;5241;47.830;12.972;2022-07-29T13:43:11;33.50;53.00
10390;DHT22;5241;47.830;12.972;2022-07-29T13:45:37;34.00;52.50
10390;DHT22;5241;47.830;12.972;2022-07-29T13:48:03;35.10;48.80
10390;DHT22;5241;47.830;12.972;2022-07-29T13:50:29;34.20;50.70
10390;DHT22;5241;47.830;12.972;2022-07-29T13:52:54;32.50;54.00
10390;DHT22;5241;47.830;12.972;2022-07-29T13:55:20;30.90;55.50
10390;DHT22;5241;47.830;12.972;2022-07-29T13:57:46;30.00;58.60
10390;DHT22;5241;47.830;12.972;2022-07-29T14:00:12;29.70;58.70
10390;DHT22;5241;47.830;12.972;2022-07-29T14:02:38;29.10;59.70
10390;DHT22;5241;47.830;12.972;2022-07-29T14:05:05;28.90;59.70
10390;DHT22;5241;47.830;12.972;2022-07-29T14:07:31;28.70;62.20
10390;DHT22;5241;47.830;12.972;2022-07-29T14:09:56;28.40;61.20
10390;DHT22;5241;47.830;12.972;2022-07-29T14:12:22;28.40;61.20
10390;DHT22;5241;47.830;12.972;2022-07-29T14:14:48;28.30;63.60
10390;DHT22;5241;47.830;12.972;2022-07-29T14:17:14;30.00;58.60
10390;DHT22;5241;47.830;12.972;2022-07-29T14:19:40;31.60;54.90
10390;DHT22;5241;47.830;12.972;2022-07-29T14:22:06;31.80;55.40
10390;DHT22;5241;47.830;12.972;2022-07-29T14:24:32;31.00;56.00
10390;DHT22;5241;47.830;12.972;2022-07-29T14:26:58;29.60;58.30
10390;DHT22;5241;47.830;12.972;2022-07-29T14:29:24;28.60;61.70
10390;DHT22;5241;47.830;12.972;2022-07-29T14:31:49;28.40;60.20
10390;DHT22;5241;47.830;12.972;2022-07-29T14:34:15;28.60;62.30
10390;DHT22;5241;47.830;12.972;2022-07-29T14:36:41;28.50;61.90
10390;DHT22;5241;47.830;12.972;2022-07-29T14:39:07;28.80;62.90
10390;DHT22;5241;47.830;12.972;2022-07-29T14:41:32;29.30;61.30
10390;DHT22;5241;47.830;12.972;2022-07-29T14:43:58;30.50;58.00
10390;DHT22;5241;47.830;12.972;2022-07-29T14:46:26;30.00;58.70
10390;DHT22;5241;47.830;12.972;2022-07-29T14:48:52;29.60;58.90
10390;DHT22;5241;47.830;12.972;2022-07-29T14:51:17;29.40;60.00
10390;DHT22;5241;47.830;12.972;2022-07-29T14:53:43;29.30;60.00
10390;DHT22;5241;47.830;12.972;2022-07-29T14:56:09;30.40;58.00
10390;DHT22;5241;47.830;12.972;2022-07-29T14:58:35;32.10;56.10
10390;DHT22;5241;47.830;12.972;2022-07-29T15:01:00;33.30;52.90
10390;DHT22;5241;47.830;12.972;2022-07-29T15:03:26;34.30;51.60
10390;DHT22;5241;47.830;12.972;2022-07-29T15:05:53;34.30;50.90
10390;DHT22;5241;47.830;12.972;2022-07-29T15:08:19;33.20;52.30
10390;DHT22;5241;47.830;12.972;2022-07-29T15:10:44;32.30;54.40
10390;DHT22;5241;47.830;12.972;2022-07-29T15:13:10;32.40;55.10
10390;DHT22;5241;47.830;12.972;2022-07-29T15:15:36;33.10;52.80
10390;DHT22;5241;47.830;12.972;2022-07-29T15:18:01;33.10;52.40
10390;DHT22;5241;47.830;12.972;2022-07-29T15:20:27;32.80;56.10
10390;DHT22;5241;47.830;12.972;2022-07-29T15:22:53;32.80;53.50
10390;DHT22;5241;47.830;12.972;2022-07-29T15:25:21;33.90;51.80
10390;DHT22;5241;47.830;12.972;2022-07-29T15:27:47;35.00;51.30
10390;DHT22;5241;47.830;12.972;2022-07-29T15:30:12;35.30;48.90
10390;DHT22;5241;47.830;12.972;2022-07-29T15:32:38;35.70;49.10
10390;DHT22;5241;47.830;12.972;2022-07-29T15:35:03;35.50;48.30
10390;DHT22;5241;47.830;12.972;2022-07-29T15:37:29;35.10;49.00
10390;DHT22;5241;47.830;12.972;2022-07-29T15:39:55;34.20;51.50
10390;DHT22;5241;47.830;12.972;2022-07-29T15:42:21;34.40;51.50
10390;DHT22;5241;47.830;12.972;2022-07-29T15:44:46;33.70;50.50
10390;DHT22;5241;47.830;12.972;2022-07-29T15:47:12;32.10;52.70
10390;DHT22;5241;47.830;12.972;2022-07-29T15:49:40;31.40;55.30
10390;DHT22;5241;47.830;12.972;2022-07-29T15:52:09;30.50;56.10
10390;DHT22;5241;47.830;12.972;2022-07-29T15:54:38;30.20;56.70
10390;DHT22;5241;47.830;12.972;2022-07-29T15:57:05;30.10;58.30
10390;DHT22;5241;47.830;12.972;2022-07-29T15:59:30;29.70;58.40
10390;DHT22;5241;47.830;12.972;2022-07-29T16:01:56;29.30;60.00
10390;DHT22;5241;47.830;12.972;2022-07-29T16:04:22;29.20;59.40
10390;DHT22;5241;47.830;12.972;2022-07-29T16:06:48;28.80;62.00
10390;DHT22;5241;47.830;12.972;2022-07-29T16:09:15;28.70;60.60
10390;DHT22;5241;47.830;12.972;2022-07-29T16:11:41;28.60;63.20
10390;DHT22;5241;47.830;12.972;2022-07-29T16:14:07;28.30;64.60
10390;DHT22;5241;47.830;12.972;2022-07-29T16:16:33;28.00;63.30
10390;DHT22;5241;47.830;12.972;2022-07-29T16:18:59;27.80;63.60
10390;DHT22;5241;47.830;12.972;2022-07-29T16:21:24;27.60;63.10